Time;durP1;ratioP1;P1;durP2;ratioP2;P2;SDS_P1;SDS_P2;PMS_P1;PMS_P2;Temp;Humidity;BMP_temperature;BMP_pressure;BME280_temperature;BME280_humidity;BME280_pressure;Samples;Min_cycle;Max_cycle;Signal;HPM_P1;HPM_P2
2021/01/31 00:00:24;;;;;;;37.97;23.50;;;;;;;3.78;91.01;93794.09;5041422;28;20851;-78
2021/01/31 00:02:52;;;;;;;36.70;23.20;;;;;;;3.80;90.12;93787.00;5094080;28;20443;-78
2021/01/31 00:05:20;;;;;;;45.23;24.77;;;;;;;3.82;90.71;93793.72;5093931;28;20450;-78
2021/01/31 00:07:46;;;;;;;33.63;20.60;;;;;;;3.86;90.64;93796.91;5093544;28;20440;-78
2021/01/31 00:10:14;;;;;;;44.23;21.23;;;;;;;3.91;90.33;93802.56;5093824;28;20428;-78
2021/01/31 00:12:41;;;;;;;36.83;21.27;;;;;;;3.89;89.39;93804.47;5093505;28;20420;-78
2021/01/31 00:15:09;;;;;;;39.57;19.30;;;;;;;3.96;89.41;93792.66;5093672;28;20436;-78
2021/01/31 00:17:36;;;;;;;34.57;20.70;;;;;;;3.98;89.46;93791.59;5093518;28;20462;-78
2021/01/31 00:20:04;;;;;;;33.30;20.70;;;;;;;4.03;89.85;93802.44;5093009;28;20483;-78
2021/01/31 00:22:31;;;;;;;38.20;19.73;;;;;;;4.06;89.69;93793.63;5093514;28;20518;-78
2021/01/31 00:24:57;;;;;;;30.83;17.60;;;;;;;4.04;88.78;93785.09;5093507;28;20435;-78
2021/01/31 00:27:24;;;;;;;31.20;19.67;;;;;;;3.96;89.67;93790.88;5093912;28;20424;-78
2021/01/31 00:29:50;;;;;;;37.30;22.40;;;;;;;3.67;90.34;93790.50;5093963;28;20428;-78
2021/01/31 00:32:22;;;;;;;40.90;22.17;;;;;;;3.65;90.57;93801.94;5041732;28;20447;-78
2021/01/31 00:34:48;;;;;;;46.67;21.60;;;;;;;3.68;91.25;93820.69;5093528;28;20438;-78
2021/01/31 00:37:16;;;;;;;49.23;23.30;;;;;;;3.65;91.54;93807.97;5093539;28;20934;-79
2021/01/31 00:39:43;;;;;;;42.20;20.60;;;;;;;3.68;92.25;93802.53;5093277;28;20495;-79
2021/01/31 00:42:10;;;;;;;42.27;21.70;;;;;;;3.67;92.15;93803.50;5093245;28;20443;-78
2021/01/31 00:44:36;;;;;;;45.63;21.73;;;;;;;3.48;94.32;93785.09;5093193;28;20809;-78
2021/01/31 00:47:02;;;;;;;58.03;26.53;;;;;;;3.38;96.25;93807.44;5093467;28;20903;-78
2021/01/31 00:49:29;;;;;;;47.57;22.93;;;;;;;3.49;96.26;93812.66;5095009;28;20443;-78
2021/01/31 00:51:55;;;;;;;30.90;17.40;;;;;;;3.55;95.42;93801.81;5096854;28;20818;-78
2021/01/31 00:54:22;;;;;;;35.20;17.50;;;;;;;3.61;94.98;93803.13;5096488;28;20447;-78
2021/01/31 00:56:49;;;;;;;34.77;20.30;;;;;;;3.39;94.89;93780.56;5044693;28;20467;-78
2021/01/31 00:59:15;;;;;;;41.73;22.23;;;;;;;3.47;94.90;93811.97;5096245;28;20540;-78
2021/01/31 01:01:41;;;;;;;34.20;19.77;;;;;;;3.57;93.98;93796.53;5096325;28;20455;-78
2021/01/31 01:04:08;;;;;;;32.73;21.60;;;;;;;3.52;93.72;93789.09;5097055;28;20443;-78
2021/01/31 01:06:34;;;;;;;35.07;21.50;;;;;;;3.55;93.82;93804.41;5096942;28;20450;-78
2021/01/31 01:09:00;;;;;;;36.73;19.90;;;;;;;3.56;94.22;93802.66;5096546;28;20439;-78
2021/01/31 01:11:28;;;;;;;117.87;53.50;;;;;;;3.29;94.74;93777.00;5061416;28;20485;-78
2021/01/31 01:13:54;;;;;;;52.17;25.83;;;;;;;3.31;95.67;93785.50;5097012;28;20497;-78
2021/01/31 01:16:20;;;;;;;39.97;23.17;;;;;;;3.35;95.41;93782.56;5096478;28;20439;-78
2021/01/31 01:18:46;;;;;;;41.43;25.50;;;;;;;3.43;96.01;93792.34;5096489;28;20449;-78
2021/01/31 01:21:13;;;;;;;47.17;24.03;;;;;;;3.51;95.93;93778.84;5096085;28;20486;-79
2021/01/31 01:23:40;;;;;;;40.40;22.83;;;;;;;3.52;95.02;93789.09;5096244;28;20518;-78
2021/01/31 01:26:07;;;;;;;50.23;27.43;;;;;;;3.50;95.49;93775.41;5096560;28;20428;-78
2021/01/31 01:28:34;;;;;;;42.00;25.70;;;;;;;3.53;95.14;93787.31;5044854;28;20511;-78
2021/01/31 01:31:00;;;;;;;48.40;25.40;;;;;;;3.47;95.16;93780.84;5096324;28;20465;-79
2021/01/31 01:33:27;;;;;;;38.53;25.80;;;;;;;3.56;95.28;93793.09;5096591;28;21211;-78
2021/01/31 01:35:53;;;;;;;42.67;25.57;;;;;;;3.50;95.29;93759.84;5096250;28;20439;-78
2021/01/31 01:38:19;;;;;;;60.50;37.90;;;;;;;3.21;97.14;93793.16;5096387;28;20466;-78
2021/01/31 01:40:46;;;;;;;62.47;35.83;;;;;;;3.37;96.77;93782.44;5095731;28;20487;-78
2021/01/31 01:43:14;;;;;;;75.70;39.57;;;;;;;3.42;97.01;93777.75;5095927;28;20443;-78
2021/01/31 01:45:42;;;;;;;85.30;35.00;;;;;;;3.58;96.51;93782.63;5060624;28;20444;-78
2021/01/31 01:48:15;;;;;;;63.47;31.77;;;;;;;3.66;96.47;93775.91;5096236;28;20440;-78
2021/01/31 01:50:47;;;;;;;67.10;31.60;;;;;;;3.52;96.48;93760.56;5095860;28;20441;-78
2021/01/31 01:53:16;;;;;;;52.50;29.33;;;;;;;3.56;96.08;93802.66;5095851;28;20545;-78
2021/01/31 01:55:54;;;;;;;67.50;32.80;;;;;;;3.59;97.13;93784.25;5096143;28;20435;-78
2021/01/31 01:58:22;;;;;;;83.13;43.87;;;;;;;3.55;98.35;93793.22;5095868;28;20455;-78
2021/01/31 02:00:50;;;;;;;96.73;46.93;;;;;;;3.72;98.37;93811.75;5095893;28;20475;-78
2021/01/31 02:03:20;;;;;;;50.43;26.03;;;;;;;3.86;97.26;93786.53;5044243;28;20452;-78
2021/01/31 02:05:52;;;;;;;41.47;21.43;;;;;;;3.87;95.75;93785.59;5095925;28;20498;-79
2021/01/31 02:08:18;;;;;;;41.20;25.17;;;;;;;3.93;96.22;93787.72;5045329;28;20447;-78
2021/01/31 02:10:44;;;;;;;50.43;27.00;;;;;;;3.24;97.68;93763.56;5095783;28;20436;-78
2021/01/31 02:13:11;;;;;;;51.20;28.03;;;;;;;3.19;97.72;93763.09;5095737;28;20451;-78
2021/01/31 02:15:37;;;;;;;41.43;23.60;;;;;;;3.13;99.48;93774.72;5096021;28;20428;-79
2021/01/31 02:18:16;;;;;;;34.73;21.40;;;;;;;3.28;99.00;93765.00;5060322;28;20773;-78
2021/01/31 02:21:06;;;;;;;28.57;15.70;;;;;;;3.41;99.18;93755.34;5095502;28;20841;-78
2021/01/31 02:24:04;;;;;;;33.93;19.90;;;;;;;3.40;98.76;93749.34;5095510;28;20518;-78
2021/01/31 02:26:58;;;;;;;36.17;18.97;;;;;;;3.41;99.98;93802.00;5095681;28;20439;-78
2021/01/31 02:29:59;;;;;;;24.13;17.73;;;;;;;3.47;99.02;93770.47;5095851;28;20434;-78
2021/01/31 02:32:48;;;;;;;27.07;17.63;;;;;;;3.43;99.94;93776.78;5033249;28;20446;-78
2021/01/31 02:35:21;;;;;;;25.90;17.03;;;;;;;3.53;99.91;93785.56;5032839;28;20430;-78
2021/01/31 02:37:57;;;;;;;30.60;17.60;;;;;;;3.34;99.72;93739.44;5032339;28;20452;-78
2021/01/31 02:40:28;;;;;;;25.20;17.53;;;;;;;3.46;100.00;93748.03;5032363;28;20486;-78
2021/01/31 02:43:04;;;;;;;27.67;20.50;;;;;;;3.52;100.00;93757.16;5032623;28;20493;-78
2021/01/31 02:45:35;;;;;;;34.00;17.67;;;;;;;3.44;98.97;93762.88;5032667;28;20446;-78
2021/01/31 02:48:07;;;;;;;32.63;18.80;;;;;;;3.12;99.33;93760.09;5032572;28;20930;-78
2021/01/31 02:50:39;;;;;;;26.80;18.97;;;;;;;3.29;99.73;93754.50;5032443;28;20446;-78
2021/01/31 02:53:11;;;;;;;31.50;18.73;;;;;;;3.39;99.50;93767.59;5032363;28;20439;-78
2021/01/31 02:55:44;;;;;;;24.67;16.60;;;;;;;3.51;98.92;93761.50;4983232;28;20453;-78
2021/01/31 02:58:16;;;;;;;28.80;19.43;;;;;;;3.62;98.71;93766.69;5032430;28;20497;-78
2021/01/31 03:00:50;;;;;;;26.43;17.50;;;;;;;3.61;97.03;93736.50;5032548;28;20506;-78
2021/01/31 03:03:24;;;;;;;27.40;18.17;;;;;;;3.72;97.29;93743.47;4999066;28;20949;-78
2021/01/31 03:05:55;;;;;;;30.03;17.90;;;;;;;3.63;96.00;93742.41;5032195;28;20450;-78
2021/01/31 03:08:27;;;;;;;27.97;17.63;;;;;;;3.59;95.94;93741.00;5039269;28;20538;-78
2021/01/31 03:10:59;;;;;;;48.97;24.60;;;;;;;3.54;96.81;93731.91;5042607;28;20466;-78
2021/01/31 03:13:31;;;;;;;31.27;21.00;;;;;;;3.39;96.20;93732.13;5093704;28;20527;-78
2021/01/31 03:16:03;;;;;;;37.77;26.10;;;;;;;3.44;97.48;93736.97;5094510;28;20444;-78
2021/01/31 03:18:35;;;;;;;43.60;25.50;;;;;;;3.37;97.07;93756.53;5094988;28;20500;-79
2021/01/31 03:21:09;;;;;;;33.43;21.60;;;;;;;3.36;98.22;93716.81;5094479;28;20471;-78
2021/01/31 03:23:40;;;;;;;36.97;24.13;;;;;;;3.28;98.33;93741.66;5094355;28;20451;-78
2021/01/31 03:26:14;;;;;;;41.90;23.93;;;;;;;3.31;99.30;93731.88;5094708;28;20435;-78
2021/01/31 03:28:41;;;;;;;31.27;21.43;;;;;;;3.36;99.55;93722.00;5094386;28;20627;-78
2021/01/31 03:31:09;;;;;;;29.77;20.98;;;;;;;3.46;99.41;93711.75;5093975;28;20440;-78
2021/01/31 03:33:42;;;;;;;43.07;26.43;;;;;;;3.47;98.26;93716.00;5094456;28;20190;-78
2021/01/31 03:36:10;;;;;;;31.13;19.87;;;;;;;3.33;99.90;93695.47;5094023;28;20530;-78
2021/01/31 03:38:39;;;;;;;30.43;19.80;;;;;;;3.41;100.00;93682.75;5093774;28;20451;-78
2021/01/31 03:41:09;;;;;;;38.97;20.53;;;;;;;3.54;99.94;93708.59;5093649;28;20838;-78
2021/01/31 03:43:36;;;;;;;23.53;13.90;;;;;;;3.44;99.10;93677.31;5094403;28;20443;-78
2021/01/31 03:46:10;;;;;;;25.17;16.30;;;;;;;3.47;99.09;93690.06;5093821;28;20442;-78
2021/01/31 03:48:42;;;;;;;20.13;15.07;;;;;;;3.58;99.89;93687.47;5094024;28;20451;-78
2021/01/31 03:51:11;;;;;;;24.00;14.27;;;;;;;3.48;99.07;93680.53;5058758;28;20444;-78
2021/01/31 03:53:37;;;;;;;25.00;15.23;;;;;;;3.27;100.00;93675.22;5093869;28;20440;-78
2021/01/31 03:56:06;;;;;;;29.47;15.40;;;;;;;2.95;100.00;93675.88;5058046;28;20443;-78
2021/01/31 03:58:33;;;;;;;27.70;17.67;;;;;;;3.09;100.00;93698.97;5093751;28;20455;-78
2021/01/31 04:01:04;;;;;;;28.67;17.40;;;;;;;3.22;100.00;93677.31;5093835;28;20490;-80
2021/01/31 04:03:33;;;;;;;29.40;18.27;;;;;;;3.15;100.00;93681.31;5093924;28;20443;-78
2021/01/31 04:06:03;;;;;;;32.90;18.80;;;;;;;3.05;100.00;93694.97;5094249;28;20428;-78
2021/01/31 04:08:32;;;;;;;35.05;20.50;;;;;;;3.15;100.00;93697.69;5094229;28;20768;-78
2021/01/31 04:10:59;;;;;;;36.30;23.10;;;;;;;3.03;100.00;93677.88;5093371;28;20205;-78
2021/01/31 04:13:28;;;;;;;33.20;18.07;;;;;;;3.05;100.00;93673.41;5041223;28;20839;-78
2021/01/31 04:15:58;;;;;;;28.33;19.50;;;;;;;3.13;100.00;93678.81;5093321;28;20430;-78
2021/01/31 04:18:25;;;;;;;32.40;21.20;;;;;;;3.20;100.00;93700.78;5093519;28;20447;-78
2021/01/31 04:20:52;;;;;;;33.33;20.47;;;;;;;3.33;100.00;93703.25;5093642;28;20479;-78
2021/01/31 04:23:20;;;;;;;30.00;19.07;;;;;;;3.28;99.19;93687.22;5093644;28;20440;-78
2021/01/31 04:25:47;;;;;;;34.15;19.65;;;;;;;3.38;99.51;93698.53;5097987;28;20439;-78
2021/01/31 04:28:17;;;;;;;28.00;19.03;;;;;;;3.44;99.47;93695.47;5097430;28;20201;-78
2021/01/31 04:30:45;;;;;;;26.23;16.90;;;;;;;3.58;98.52;93697.03;5097440;28;20456;-78
2021/01/31 04:33:13;;;;;;;31.90;19.03;;;;;;;3.62;98.51;93694.06;5045731;28;20443;-78
2021/01/31 04:35:39;;;;;;;46.70;24.57;;;;;;;3.66;97.25;93677.31;5097177;28;20435;-79
2021/01/31 04:38:06;;;;;;;69.53;34.03;;;;;;;3.61;95.72;93676.88;5097624;28;20989;-78
2021/01/31 04:40:34;;;;;;;51.53;27.20;;;;;;;3.66;95.58;93672.13;5097587;28;20491;-78
2021/01/31 04:43:03;;;;;;;47.03;27.27;;;;;;;3.70;96.07;93667.53;5097613;28;20432;-78
2021/01/31 04:45:29;;;;;;;63.60;31.30;;;;;;;3.68;95.07;93670.25;5097253;28;20491;-78
2021/01/31 04:48:09;;;;;;;46.70;28.30;;;;;;;3.65;95.21;93665.31;5097649;28;20450;-78
2021/01/31 04:50:43;;;;;;;50.47;28.87;;;;;;;3.67;94.88;93663.41;5097608;28;20436;-78
2021/01/31 04:53:19;;;;;;;57.73;31.23;;;;;;;3.73;93.73;93668.13;5096779;28;20442;-78
2021/01/31 04:56:32;;;;;;;54.10;31.13;;;;;;;3.68;93.42;93654.69;5097170;28;20815;-78
2021/01/31 04:59:11;;;;;;;59.20;31.50;;;;;;;3.74;93.95;93655.97;5034928;28;20450;-78
2021/01/31 05:01:37;;;;;;;72.13;34.23;;;;;;;3.81;92.96;93669.31;5034540;28;20470;-78
2021/01/31 05:04:06;;;;;;;57.73;30.97;;;;;;;3.86;93.03;93670.59;5034683;28;20447;-78
2021/01/31 05:06:37;;;;;;;46.40;28.93;;;;;;;3.85;93.13;93662.94;5017925;28;20454;-78
2021/01/31 05:09:05;;;;;;;46.83;28.20;;;;;;;3.86;92.39;93665.41;5034335;28;20437;-78
2021/01/31 05:11:37;;;;;;;36.63;25.60;;;;;;;3.93;92.63;93683.91;4985955;28;20453;-78
2021/01/31 05:14:10;;;;;;;43.77;27.60;;;;;;;3.88;91.95;93680.84;5034515;28;20450;-78
2021/01/31 05:16:36;;;;;;;57.43;33.00;;;;;;;3.86;92.83;93685.34;5034181;28;20445;-78
2021/01/31 05:19:07;;;;;;;49.10;29.13;;;;;;;3.87;93.47;93677.44;5034729;28;20914;-78
2021/01/31 05:21:35;;;;;;;56.00;31.57;;;;;;;3.84;92.78;93676.84;5033927;28;20523;-79
2021/01/31 05:24:05;;;;;;;53.70;32.40;;;;;;;3.87;93.27;93668.81;5034389;28;20472;-78
2021/01/31 05:26:36;;;;;;;44.43;28.47;;;;;;;3.93;93.06;93663.16;5034706;28;20464;-78
2021/01/31 05:29:04;;;;;;;38.07;21.47;;;;;;;3.83;92.71;93657.88;5033928;28;20445;-78
2021/01/31 05:31:36;;;;;;;35.73;19.50;;;;;;;3.88;92.67;93647.13;5034126;28;20446;-78
2021/01/31 05:34:03;;;;;;;35.37;20.20;;;;;;;3.91;91.86;93657.25;5034151;28;20804;-78
2021/01/31 05:36:31;;;;;;;39.60;21.63;;;;;;;3.96;92.70;93665.50;5080948;28;20439;-78
2021/01/31 05:38:58;;;;;;;44.93;24.70;;;;;;;3.84;91.70;93674.25;5096499;28;20475;-78
2021/01/31 05:41:29;;;;;;;30.00;19.80;;;;;;;3.46;92.70;93628.75;5095963;28;20472;-78
2021/01/31 05:44:01;;;;;;;40.50;22.70;;;;;;;3.32;95.29;93653.16;5045375;28;20451;-78
2021/01/31 05:46:39;;;;;;;32.90;18.83;;;;;;;3.40;95.78;93647.38;5096844;28;20439;-78
2021/01/31 05:49:09;;;;;;;36.77;20.60;;;;;;;3.47;96.17;93650.31;5096384;28;20806;-78
2021/01/31 05:51:35;;;;;;;39.53;18.67;;;;;;;3.31;96.01;93653.28;5095831;28;20938;-78
2021/01/31 05:54:26;;;;;;;30.83;19.20;;;;;;;3.51;96.38;93642.22;5095830;28;20864;-77
2021/01/31 05:56:53;;;;;;;39.07;23.97;;;;;;;3.55;95.72;93664.38;5095994;28;20439;-79
2021/01/31 05:59:20;;;;;;;43.73;28.73;;;;;;;3.68;96.18;93685.81;5096405;28;20475;-78
2021/01/31 06:01:55;;;;;;;28.63;17.07;;;;;;;3.73;95.34;93662.94;5095896;28;20490;-78
2021/01/31 06:04:24;;;;;;;29.17;18.57;;;;;;;3.88;94.60;93683.44;5096076;28;20444;-78
2021/01/31 06:06:51;;;;;;;33.50;21.87;;;;;;;4.25;95.28;93699.53;5095747;28;20454;-78
2021/01/31 06:09:21;;;;;;;36.87;21.43;;;;;;;4.62;93.22;93687.84;5095875;28;20444;-78
2021/01/31 06:11:48;;;;;;;46.50;27.83;;;;;;;4.78;89.32;93710.00;5095460;28;20839;-78
2021/01/31 06:14:30;;;;;;;43.43;25.63;;;;;;;4.61;89.25;93701.78;5060507;28;20439;-77
2021/01/31 06:17:03;;;;;;;42.27;26.93;;;;;;;4.72;90.28;93697.50;5095466;28;20942;-78
2021/01/31 06:19:34;;;;;;;41.70;21.60;;;;;;;4.50;90.46;93711.41;5043541;28;20442;-78
2021/01/31 06:22:01;;;;;;;41.43;24.43;;;;;;;4.40;91.36;93718.28;5095647;28;20514;-80
2021/01/31 06:24:47;;;;;;;48.97;26.43;;;;;;;3.97;92.35;93711.25;5095565;28;20585;-77
2021/01/31 06:27:28;;;;;;;40.60;25.87;;;;;;;3.73;94.13;93730.38;5095505;28;20497;-77
2021/01/31 06:30:04;;;;;;;39.27;24.57;;;;;;;3.83;94.93;93740.91;5095541;28;20466;-78
2021/01/31 06:32:33;;;;;;;41.03;26.43;;;;;;;3.95;95.19;93739.09;5095156;28;20423;-81
2021/01/31 06:35:04;;;;;;;39.20;25.83;;;;;;;3.80;94.74;93722.16;5095086;28;20969;-80
2021/01/31 06:37:46;;;;;;;44.77;28.93;;;;;;;3.76;95.08;93736.28;5059704;28;20435;-80
2021/01/31 06:40:27;;;;;;;49.43;30.30;;;;;;;3.86;95.17;93742.44;5046952;28;20561;-82
2021/01/31 06:43:01;;;;;;;53.20;31.00;;;;;;;4.09;94.57;93741.47;5094953;28;20434;-81
2021/01/31 06:45:34;;;;;;;42.83;27.67;;;;;;;4.23;94.20;93749.00;5095067;28;20439;-81
2021/01/31 06:48:28;;;;;;;47.30;32.40;;;;;;;4.49;92.81;93739.16;5043451;28;20436;-81
2021/01/31 06:51:09;;;;;;;53.33;29.50;;;;;;;7.67;100.00;93760.44;5032735;28;20262;-85
2021/01/31 06:54:07;;;;;;;52.47;29.83;;;;;;;9.83;79.86;93749.25;5033253;28;20446;-84
2021/01/31 06:56:51;;;;;;;175.43;116.53;;;;;;;11.82;64.37;93747.75;5035606;28;20442;-83
2021/01/31 06:59:38;;;;;;;47.10;32.73;;;;;;;13.21;57.86;93727.06;5032519;28;20528;-85
2021/01/31 07:02:27;;;;;;;54.27;31.03;;;;;;;13.47;57.24;93732.81;5032721;28;20446;-81
2021/01/31 07:05:26;;;;;;;46.70;28.40;;;;;;;12.88;55.40;93740.41;5032469;28;20452;-81
2021/01/31 07:14:48;;;;;;;50.10;31.70;;;;;;;9.98;62.49;93746.88;5031212;28;20429;-82
2021/01/31 07:17:25;;;;;;;40.77;26.93;;;;;;;9.32;65.49;93761.28;5032462;28;20440;-81
2021/01/31 07:19:57;;;;;;;30.40;23.23;;;;;;;8.73;67.16;93761.84;5031650;28;20482;-82
2021/01/31 07:22:31;;;;;;;44.40;23.70;;;;;;;8.35;69.50;93750.59;5031747;28;21050;-81
2021/01/31 07:25:02;;;;;;;54.87;29.60;;;;;;;8.08;71.21;93743.53;5031471;28;20583;-81
2021/01/31 07:27:44;;;;;;;54.37;28.40;;;;;;;7.91;72.47;93752.13;5054645;28;20429;-82
2021/01/31 07:30:22;;;;;;;34.47;21.33;;;;;;;7.66;73.59;93752.75;5094542;28;20463;-81
2021/01/31 07:33:10;;;;;;;36.87;23.10;;;;;;;7.39;75.17;93761.28;5094050;28;20934;-82
2021/01/31 07:35:43;;;;;;;36.10;21.00;;;;;;;6.86;77.71;93764.28;5080737;28;20471;-81
2021/01/31 07:41:50;;;;;;;24.83;17.27;;;;;;;6.58;78.97;93746.81;5053766;28;20463;-79
2021/01/31 07:44:20;;;;;;;24.07;17.03;;;;;;;6.29;80.45;93751.97;5053774;28;20437;-80
2021/01/31 07:46:48;;;;;;;31.23;20.17;;;;;;;6.46;81.54;93746.13;5053799;28;20445;-79
2021/01/31 07:49:15;;;;;;;41.30;28.97;;;;;;;6.58;81.29;93747.66;5018777;28;20437;-80
2021/01/31 07:52:03;;;;;;;43.27;26.97;;;;;;;6.67;81.66;93754.69;5054283;28;20456;-80
2021/01/31 07:54:34;;;;;;;51.00;29.90;;;;;;;6.69;80.85;93726.69;5053478;28;20874;-81
2021/01/31 07:57:32;;;;;;;37.27;25.37;;;;;;;6.68;80.91;93745.06;5053037;28;20533;-80
2021/01/31 07:59:59;;;;;;;44.23;27.10;;;;;;;6.64;80.79;93747.09;5053418;28;21059;-83
2021/01/31 08:02:39;;;;;;;55.63;32.80;;;;;;;6.59;80.78;93736.25;5054822;28;20434;-81
2021/01/31 08:05:07;;;;;;;72.27;47.00;;;;;;;6.67;81.21;93752.06;5035341;28;20461;-83
2021/01/31 08:08:03;;;;;;;82.00;50.23;;;;;;;6.72;82.11;93746.44;5033902;28;20415;-83
2021/01/31 08:10:47;;;;;;;69.47;41.77;;;;;;;6.77;81.72;93746.88;5033210;28;20474;-83
2021/01/31 08:23:55;;;;;;;38.43;24.87;;;;;;;7.12;81.08;93733.28;5033076;28;20473;-84
2021/01/31 08:26:44;;;;;;;28.13;18.50;;;;;;;8.63;100.00;93740.13;5035249;28;20438;-79
2021/01/31 08:29:37;;;;;;;33.97;17.47;;;;;;;8.47;82.68;93750.44;5033745;28;20457;-82
2021/01/31 08:32:11;;;;;;;43.90;27.27;;;;;;;8.51;77.02;93752.59;5033507;28;20451;-83
2021/01/31 08:35:17;;;;;;;31.67;21.90;;;;;;;8.54;75.05;93743.66;5032963;28;20458;-82
2021/01/31 08:37:43;;;;;;;22.50;15.50;;;;;;;8.52;72.35;93741.19;5033052;28;20451;-81
2021/01/31 08:40:36;;;;;;;26.33;16.67;;;;;;;8.44;71.43;93737.66;5053041;28;20502;-81
2021/01/31 08:43:03;;;;;;;30.63;21.50;;;;;;;8.34;72.31;93727.22;5073164;28;20926;-82
2021/01/31 08:45:41;;;;;;;38.27;23.73;;;;;;;8.41;73.30;93744.00;5054157;28;20461;-82
2021/01/31 08:48:07;;;;;;;35.33;26.00;;;;;;;8.44;71.30;93732.44;5054822;28;20446;-81
2021/01/31 08:50:34;;;;;;;147.53;65.80;;;;;;;8.32;72.61;93736.97;5072591;28;20437;-80
2021/01/31 08:53:05;;;;;;;103.07;45.73;;;;;;;8.28;73.14;93738.22;5073786;28;20525;-79
2021/01/31 08:55:31;;;;;;;53.10;28.20;;;;;;;8.32;70.77;93718.69;5092920;28;20450;-80
2021/01/31 08:58:03;;;;;;;45.87;23.40;;;;;;;8.25;71.46;93736.75;5093626;28;20440;-79
2021/01/31 09:00:32;;;;;;;39.83;22.70;;;;;;;8.37;71.90;93753.06;5093333;28;20469;-81
2021/01/31 09:02:59;;;;;;;43.47;20.10;;;;;;;8.24;69.61;93726.44;5092714;28;20496;-80
2021/01/31 09:05:29;;;;;;;29.30;16.17;;;;;;;8.16;69.68;93755.91;5092616;28;20444;-80
2021/01/31 09:08:04;;;;;;;28.43;18.37;;;;;;;8.14;71.03;93736.09;5092941;28;20433;-80
2021/01/31 09:10:38;;;;;;;24.00;15.00;;;;;;;8.07;71.11;93757.56;5095057;28;20439;-79
2021/01/31 09:13:12;;;;;;;29.63;16.30;;;;;;;8.22;71.41;93762.34;5096606;28;20434;-79
2021/01/31 09:15:40;;;;;;;20.80;13.97;;;;;;;8.15;71.42;93777.78;5096448;28;20444;-82
2021/01/31 09:18:09;;;;;;;16.40;12.27;;;;;;;8.28;71.14;93769.59;5096902;28;20514;-81
2021/01/31 09:20:36;;;;;;;14.70;11.30;;;;;;;8.33;70.76;93772.59;5096560;28;20478;-81
2021/01/31 09:23:08;;;;;;;24.97;13.03;;;;;;;8.34;70.02;93774.28;5096551;28;20443;-79
2021/01/31 09:25:36;;;;;;;18.53;16.20;;;;;;;8.10;70.79;93753.03;5096375;28;20424;-78
2021/01/31 09:28:08;;;;;;;24.87;15.73;;;;;;;8.10;71.38;93777.38;5096606;28;20963;-80
2021/01/31 09:30:38;;;;;;;31.80;19.00;;;;;;;8.06;72.07;93770.75;5096647;28;20429;-79
2021/01/31 09:33:08;;;;;;;16.07;10.43;;;;;;;7.94;71.68;93777.13;5077360;28;20780;-79
2021/01/31 09:35:37;;;;;;;15.40;10.27;;;;;;;7.79;72.84;93766.31;5075982;28;20430;-82
2021/01/31 09:38:15;;;;;;;15.87;12.07;;;;;;;7.76;73.25;93770.03;5076249;28;20448;-78
2021/01/31 09:40:43;;;;;;;22.57;13.23;;;;;;;7.41;74.49;93773.22;5024334;28;20496;-78
2021/01/31 09:43:14;;;;;;;19.00;13.23;;;;;;;7.58;74.55;93789.16;5076439;28;20428;-78
2021/01/31 09:45:43;;;;;;;18.90;12.40;;;;;;;7.55;75.57;93784.22;5075723;28;20972;-78
2021/01/31 09:48:12;;;;;;;17.80;11.63;;;;;;;7.53;75.02;93760.06;5075714;28;20782;-78
2021/01/31 09:50:38;;;;;;;29.40;15.47;;;;;;;7.22;76.79;93775.00;5075717;28;20921;-79
2021/01/31 09:53:05;;;;;;;27.90;17.30;;;;;;;7.38;77.09;93765.69;5076406;28;20478;-80
2021/01/31 09:55:41;;;;;;;27.73;19.17;;;;;;;7.49;77.03;93761.28;5075839;28;20462;-80
2021/01/31 09:58:20;;;;;;;23.57;15.30;;;;;;;7.56;76.53;93765.00;5075722;28;20491;-79
2021/01/31 10:00:48;;;;;;;18.93;13.53;;;;;;;7.55;76.00;93758.94;5075906;28;20469;-79
2021/01/31 10:03:25;;;;;;;17.27;12.90;;;;;;;7.65;76.46;93778.03;5075791;28;20484;-80
2021/01/31 10:06:09;;;;;;;31.40;18.30;;;;;;;7.61;76.55;93768.81;5075621;28;20449;-82
2021/01/31 10:22:15;;;;;;;33.73;21.60;;;;;;;7.70;76.01;93754.09;5066825;28;20573;-81
2021/01/31 10:24:47;;;;;;;39.37;25.90;;;;;;;7.85;75.96;93742.25;5072497;28;20460;-81
2021/01/31 10:27:26;;;;;;;40.60;23.90;;;;;;;7.86;74.73;93733.47;5075473;28;20439;-82
2021/01/31 10:29:53;;;;;;;37.93;26.17;;;;;;;8.02;75.70;93732.84;5075814;28;20437;-82
2021/01/31 10:32:23;;;;;;;44.33;28.57;;;;;;;8.05;74.32;93730.75;5077413;28;20503;-82
2021/01/31 10:38:31;;;;;;;34.00;23.87;;;;;;;8.18;74.00;93724.41;5074992;28;20786;-83
2021/01/31 10:40:59;;;;;;;42.00;24.30;;;;;;;8.20;74.49;93704.16;5074729;28;20579;-82
2021/01/31 10:43:26;;;;;;;36.90;22.00;;;;;;;8.11;74.41;93712.88;5074854;28;20484;-83
2021/01/31 10:45:53;;;;;;;37.50;21.60;;;;;;;8.23;75.09;93689.03;5074669;28;20438;-83
2021/01/31 10:48:19;;;;;;;33.97;19.90;;;;;;;8.35;75.42;93706.16;5074678;28;20438;-83
2021/01/31 10:50:46;;;;;;;31.97;19.87;;;;;;;8.50;74.21;93703.91;5039909;28;20496;-83
2021/01/31 10:53:12;;;;;;;48.80;24.93;;;;;;;9.89;100.00;93691.00;5074401;28;20455;-83
2021/01/31 10:55:40;;;;;;;40.03;23.33;;;;;;;9.52;100.00;93695.66;5075144;28;20438;-82
2021/01/31 10:58:06;;;;;;;43.70;27.17;;;;;;;9.38;74.40;93711.91;5074825;28;20432;-83
2021/01/31 11:00:32;;;;;;;43.57;26.80;;;;;;;9.44;72.85;93700.84;5074572;28;20480;-83
2021/01/31 11:13:06;;;;;;;57.77;31.30;;;;;;;9.31;70.83;93709.91;5074591;28;20421;-78
2021/01/31 11:15:32;;;;;;;37.20;24.83;;;;;;;9.24;68.47;93690.53;5074457;28;20926;-79
2021/01/31 11:18:02;;;;;;;57.33;33.60;;;;;;;9.27;68.97;93685.03;5074151;28;20445;-79
2021/01/31 11:20:31;;;;;;;59.23;36.50;;;;;;;9.38;69.58;93696.22;5074481;28;20475;-78
2021/01/31 11:22:57;;;;;;;44.50;28.47;;;;;;;9.34;68.46;93669.53;5074285;28;20486;-79
2021/01/31 11:25:24;;;;;;;39.65;25.33;;;;;;;9.25;68.37;93691.34;5073668;28;21125;-79
2021/01/31 11:27:50;;;;;;;43.30;29.80;;;;;;;9.33;69.09;93678.34;5074199;28;20188;-83
2021/01/31 11:30:18;;;;;;;51.50;36.00;;;;;;;9.30;68.85;93669.00;5073581;28;20952;-78
2021/01/31 11:32:44;;;;;;;65.00;36.97;;;;;;;9.42;69.36;93679.22;5073920;28;20449;-80
2021/01/31 11:35:11;;;;;;;47.60;32.03;;;;;;;9.57;70.47;93675.09;5073987;28;20514;-78
2021/01/31 11:37:37;;;;;;;60.87;38.20;;;;;;;9.61;69.29;93661.53;5022320;28;20439;-77
2021/01/31 11:40:04;;;;;;;51.50;33.90;;;;;;;9.71;68.80;93666.66;5073782;28;20486;-78
2021/01/31 11:42:31;;;;;;;47.80;30.97;;;;;;;9.73;68.66;93653.38;5073465;28;20449;-78
2021/01/31 11:44:57;;;;;;;77.25;49.95;;;;;;;10.91;100.00;93650.69;5073079;28;20976;-87
2021/01/31 11:47:24;;;;;;;50.93;31.70;;;;;;;12.78;87.33;93649.47;5073999;28;20595;-78
2021/01/31 11:49:52;;;;;;;57.53;34.87;;;;;;;12.83;62.77;93639.25;5073639;28;20491;-77
2021/01/31 11:52:18;;;;;;;64.70;40.50;;;;;;;12.66;59.01;93638.50;5073926;28;20438;-77
2021/01/31 11:54:45;;;;;;;65.50;39.87;;;;;;;12.27;59.86;93634.09;5073971;28;20429;-76
2021/01/31 11:57:12;;;;;;;57.10;38.67;;;;;;;11.94;59.76;93622.06;5073537;28;20815;-77
2021/01/31 11:59:39;;;;;;;49.07;29.90;;;;;;;11.48;59.79;93619.19;5073755;28;20440;-77
2021/01/31 12:02:06;;;;;;;44.90;28.37;;;;;;;11.19;61.74;93627.59;5073720;28;20828;-77
2021/01/31 12:04:33;;;;;;;53.80;32.30;;;;;;;11.02;62.72;93611.03;5073782;28;20445;-77
2021/01/31 12:07:00;;;;;;;49.47;33.83;;;;;;;10.83;63.41;93622.66;5072962;28;20446;-78
2021/01/31 12:09:26;;;;;;;46.57;33.43;;;;;;;10.58;64.49;93628.03;5073498;28;20479;-78
2021/01/31 12:11:53;;;;;;;49.80;30.90;;;;;;;10.27;66.40;93617.28;5068486;28;20514;-77
2021/01/31 12:14:19;;;;;;;47.20;31.40;;;;;;;10.31;65.68;93616.00;5071036;28;20440;-77
2021/01/31 12:16:46;;;;;;;57.53;37.87;;;;;;;10.35;66.92;93615.50;5053577;28;20426;-77
2021/01/31 12:19:12;;;;;;;56.13;38.20;;;;;;;10.37;67.53;93608.31;5053510;28;20467;-78
2021/01/31 12:21:39;;;;;;;56.20;35.90;;;;;;;10.38;67.02;93612.56;5053087;28;20591;-77
2021/01/31 12:24:06;;;;;;;58.73;39.03;;;;;;;10.45;67.41;93624.06;5054440;28;20504;-77
2021/01/31 12:26:33;;;;;;;58.23;40.27;;;;;;;10.43;65.56;93617.34;5072949;28;20511;-77
2021/01/31 12:28:59;;;;;;;53.87;36.80;;;;;;;10.45;65.21;93613.59;5073200;28;20550;-78
2021/01/31 12:31:26;;;;;;;60.03;36.13;;;;;;;10.40;64.87;93604.53;5073188;28;20519;-77